Almyra, Arkansas
Current Conditions -  °F | °C
As of 6:15 PM on Friday 28 Nov 2014 (Local Time) from KSGT Reporting Station
Clear Clear  
Wind Chill: 10°   Ceiling: Unl
Heat Index: 10°   Visibility: 10mi
Dew Point:   Wind: 12mph
Humidity: 58%   Direction: 160°SSE
Pressure: 30.12"   Gusts: NA
Location:  34.41°N, 91.41°W
Report Text: KSGT 290015Z AUTO 16010KT 10SM CLR 10/02 A3012 RMK AO1
Loading
Personal Weather Stations






























Interactive Weather Map New forecast layout! Learn more

10-Day Weather Forecast

Advertisements
Track Severe Weather on mobile